createdAt,value
2019-02-04T00:00:29.981Z,100677.92
2019-02-04T00:02:57.326Z,100692.03
2019-02-04T00:05:23.643Z,100699.33
2019-02-04T00:07:49.848Z,100704.89
2019-02-04T00:10:16.014Z,100709.77
2019-02-04T00:12:42.220Z,100714.86
2019-02-04T00:15:08.605Z,100715.11
2019-02-04T00:17:35.123Z,100726.16
2019-02-04T00:20:01.665Z,100730.21
2019-02-04T00:22:27.872Z,100735.14
2019-02-04T00:24:54.095Z,100733.79
2019-02-04T00:27:20.328Z,100735.88
2019-02-04T00:29:46.639Z,100741.84
2019-02-04T00:32:12.830Z,100736.19
2019-02-04T00:34:38.997Z,100747.55
2019-02-04T00:37:05.283Z,100748.52
2019-02-04T00:39:31.476Z,100750.59
2019-02-04T00:41:57.692Z,100758.89
2019-02-04T00:44:23.889Z,100765.34
2019-02-04T00:46:52.355Z,100775.39
2019-02-04T00:49:18.164Z,100785.17
2019-02-04T00:51:44.366Z,100785.61
2019-02-04T00:54:11.027Z,100794.80
2019-02-04T00:56:37.215Z,100805.67
2019-02-04T00:59:03.642Z,100804.72
2019-02-04T01:01:29.835Z,100806.14
2019-02-04T01:03:56.371Z,100807.47
2019-02-04T01:06:22.540Z,100815.30
2019-02-04T01:08:48.753Z,100825.94
2019-02-04T01:11:14.906Z,100826.05
2019-02-04T01:13:41.516Z,100833.39
2019-02-04T01:16:07.712Z,100830.30
2019-02-04T01:18:34.253Z,100838.34
2019-02-04T01:21:00.412Z,100837.54
2019-02-04T01:23:26.622Z,100843.77
2019-02-04T01:25:53.054Z,100847.23
2019-02-04T01:28:19.416Z,100859.04
2019-02-04T01:30:45.577Z,100857.98
2019-02-04T01:33:11.794Z,100865.84
2019-02-04T01:35:37.957Z,100869.50
2019-02-04T01:38:04.139Z,100866.27
2019-02-04T01:40:30.300Z,100873.02
2019-02-04T01:42:56.499Z,100879.61
2019-02-04T01:45:23.781Z,100887.28
2019-02-04T01:47:49.984Z,100886.08
2019-02-04T01:50:19.719Z,100887.20
2019-02-04T01:52:46.425Z,100898.09
2019-02-04T01:55:13.637Z,100897.17
2019-02-04T01:57:39.808Z,100902.70
2019-02-04T02:00:19.753Z,100906.36
2019-02-04T02:02:45.952Z,100902.88
2019-02-04T02:05:12.722Z,100908.90
2019-02-04T02:07:39.024Z,100903.69
2019-02-04T02:10:10.544Z,100907.39
2019-02-04T02:12:37.095Z,100906.55
2019-02-04T02:15:06.560Z,100906.78
2019-02-04T02:17:32.920Z,100909.98
2019-02-04T02:19:59.527Z,100904.93
2019-02-04T02:22:25.695Z,100905.06
2019-02-04T02:24:52.293Z,100904.09
2019-02-04T02:27:18.466Z,100910.70
2019-02-04T02:29:45.140Z,100912.09
2019-02-04T02:32:11.313Z,100915.17
2019-02-04T02:34:37.807Z,100923.47
2019-02-04T02:37:03.988Z,100919.43
2019-02-04T02:39:30.556Z,100925.25
2019-02-04T02:41:56.743Z,100926.95
2019-02-04T02:44:22.940Z,100931.65
2019-02-04T02:46:49.099Z,100932.97
2019-02-04T02:49:15.278Z,100937.58
2019-02-04T02:51:41.775Z,100940.61
2019-02-04T02:54:07.970Z,100938.37
2019-02-04T02:56:34.127Z,100935.76
2019-02-04T02:59:00.872Z,100932.88
2019-02-04T03:01:27.311Z,100934.03
2019-02-04T03:03:53.527Z,100938.58
2019-02-04T03:06:19.687Z,100939.94
2019-02-04T03:08:46.122Z,100934.12
2019-02-04T03:11:12.365Z,100938.42
2019-02-04T03:13:38.586Z,100936.50
2019-02-04T03:16:05.051Z,100944.44
2019-02-04T03:18:38.044Z,100945.48
2019-02-04T03:21:04.234Z,100951.36
2019-02-04T03:23:30.443Z,100956.58
2019-02-04T03:25:56.649Z,100955.55
2019-02-04T03:28:22.852Z,100963.16
2019-02-04T03:30:49.018Z,100968.67
2019-02-04T03:33:15.200Z,100973.38
2019-02-04T03:35:41.779Z,100978.12
2019-02-04T03:38:07.927Z,100978.43
2019-02-04T03:40:34.161Z,100985.58
2019-02-04T03:43:00.461Z,100986.42
2019-02-04T03:45:26.653Z,100992.16
2019-02-04T03:48:04.134Z,101001.59
2019-02-04T03:50:21.422Z,101003.88
2019-02-04T03:52:47.994Z,101006.95
2019-02-04T03:55:16.409Z,101014.45
2019-02-04T03:57:42.772Z,101017.69
2019-02-04T04:00:25.703Z,101022.41
2019-02-04T04:02:52.355Z,101021.98
2019-02-04T04:05:18.754Z,101027.80
2019-02-04T04:07:45.031Z,101027.15
2019-02-04T04:10:12.959Z,101029.41
2019-02-04T04:12:39.126Z,101035.52
2019-02-04T04:15:12.917Z,101034.45
2019-02-04T04:17:39.355Z,101041.26
2019-02-04T04:20:12.882Z,101045.25
2019-02-04T04:22:39.050Z,101048.49
2019-02-04T04:25:08.817Z,101049.42
2019-02-04T04:27:34.992Z,101052.27
2019-02-04T04:30:01.262Z,101052.52
2019-02-04T04:32:30.016Z,101054.31
2019-02-04T04:34:55.492Z,101056.14
2019-02-04T04:37:21.647Z,101066.96
2019-02-04T04:39:50.192Z,101069.52
2019-02-04T04:42:16.355Z,101069.95
2019-02-04T04:44:42.530Z,101076.86
2019-02-04T04:47:08.744Z,101076.07
2019-02-04T04:49:34.907Z,101082.85
2019-02-04T04:52:01.389Z,101090.77
2019-02-04T04:54:27.558Z,101090.24
2019-02-04T04:56:54.058Z,101088.45
2019-02-04T04:59:20.334Z,101085.16
2019-02-04T05:01:46.605Z,101083.55
2019-02-04T05:04:12.770Z,101090.92
2019-02-04T05:06:38.998Z,101090.14
2019-02-04T05:09:05.573Z,101095.12
2019-02-04T05:11:31.773Z,101090.79
2019-02-04T05:13:57.956Z,101090.30
2019-02-04T05:16:24.484Z,101094.73
2019-02-04T05:18:51.027Z,101095.66
2019-02-04T05:21:17.206Z,101100.39
2019-02-04T05:23:43.363Z,101105.15
2019-02-04T05:26:09.563Z,101105.28
2019-02-04T05:28:35.742Z,101106.73
2019-02-04T05:31:01.926Z,101112.52
2019-02-04T05:33:28.865Z,101108.84
2019-02-04T05:35:55.052Z,101111.20
2019-02-04T05:38:21.231Z,101106.52
2019-02-04T05:40:47.430Z,101108.46
2019-02-04T05:43:13.602Z,101114.47
2019-02-04T05:45:39.777Z,101110.24
2019-02-04T05:48:05.967Z,101117.14
2019-02-04T05:50:32.140Z,101120.67
2019-02-04T05:52:58.308Z,101120.08
2019-02-04T05:55:24.486Z,101119.20
2019-02-04T05:57:50.688Z,101122.00
2019-02-04T06:00:26.151Z,101128.89
2019-02-04T06:02:52.422Z,101132.96
2019-02-04T06:05:18.917Z,101135.67
2019-02-04T06:07:45.152Z,101140.35
2019-02-04T06:10:11.544Z,101140.52
2019-02-04T06:12:37.715Z,101140.35
2019-02-04T06:15:09.156Z,101134.73
2019-02-04T06:17:35.653Z,101143.00
2019-02-04T06:20:07.027Z,101144.06
2019-02-04T06:22:33.212Z,101149.09
2019-02-04T06:24:59.402Z,101147.94
2019-02-04T06:27:25.869Z,101154.19
2019-02-04T06:29:52.113Z,101159.49
2019-02-04T06:32:18.326Z,101157.59
2019-02-04T06:34:44.518Z,101158.76
2019-02-04T06:37:10.687Z,101159.55
2019-02-04T06:39:36.855Z,101165.08
2019-02-04T06:42:03.050Z,101170.10
2019-02-04T06:44:29.217Z,101171.39
2019-02-04T06:46:55.715Z,101177.95
2019-02-04T06:49:21.879Z,101176.86
2019-02-04T06:51:48.054Z,101178.58
2019-02-04T06:54:14.267Z,101178.89
2019-02-04T06:56:40.434Z,101184.53
2019-02-04T06:59:06.591Z,101184.44
2019-02-04T07:01:38.293Z,101179.81
2019-02-04T07:04:05.051Z,101188.12
2019-02-04T07:06:31.239Z,101194.54
2019-02-04T07:08:57.418Z,101201.13
2019-02-04T07:11:23.619Z,101203.03
2019-02-04T07:13:49.808Z,101210.78
2019-02-04T07:16:16.073Z,101211.89
2019-02-04T07:18:42.481Z,101218.55
2019-02-04T07:21:08.720Z,101224.92
2019-02-04T07:23:35.345Z,101229.31
2019-02-04T07:26:01.612Z,101229.80
2019-02-04T07:28:27.819Z,101232.88
2019-02-04T07:30:54.128Z,101234.33
2019-02-04T07:33:20.505Z,101237.17
2019-02-04T07:35:47.078Z,101239.46
2019-02-04T07:38:13.254Z,101235.70
2019-02-04T07:40:39.445Z,101235.13
2019-02-04T07:43:05.662Z,101238.75
2019-02-04T07:45:32.606Z,101241.91
2019-02-04T07:47:58.813Z,101237.78
2019-02-04T07:50:25.906Z,101241.98
2019-02-04T07:52:52.106Z,101243.89
2019-02-04T07:55:18.273Z,101240.86
2019-02-04T07:57:47.801Z,101243.02
2019-02-04T08:00:24.774Z,101244.29
2019-02-04T08:02:53.581Z,101237.91
2019-02-04T08:05:19.873Z,101239.70
2019-02-04T08:07:46.056Z,101240.80
2019-02-04T08:10:15.797Z,101241.89
2019-02-04T08:12:43.520Z,101242.81
2019-02-04T08:15:15.161Z,101240.41
2019-02-04T08:17:41.682Z,101241.50
2019-02-04T08:20:10.299Z,101242.52
2019-02-04T08:22:36.520Z,101248.73
2019-02-04T08:25:08.073Z,101252.12
2019-02-04T08:27:35.360Z,101252.15
2019-02-04T08:30:05.695Z,101252.41
2019-02-04T08:32:32.278Z,101254.88
2019-02-04T08:34:58.496Z,101260.25
2019-02-04T08:37:24.690Z,101256.70
2019-02-04T08:39:50.849Z,101257.46
2019-02-04T08:42:17.042Z,101266.39
2019-02-04T08:44:43.214Z,101267.28
2019-02-04T08:47:09.544Z,101272.30
2019-02-04T08:49:35.719Z,101273.58
2019-02-04T08:52:02.341Z,101277.45
2019-02-04T08:54:28.863Z,101282.61
2019-02-04T08:56:56.975Z,101280.39
2019-02-04T08:59:23.163Z,101282.46
2019-02-04T09:01:49.321Z,101284.66
2019-02-04T09:04:15.537Z,101286.04
2019-02-04T09:06:41.724Z,101283.14
2019-02-04T09:09:08.730Z,101283.41
2019-02-04T09:11:35.545Z,101290.86
2019-02-04T09:14:02.122Z,101298.37
2019-02-04T09:16:28.683Z,101294.52
2019-02-04T09:18:55.037Z,101294.80
2019-02-04T09:21:21.185Z,101295.70
2019-02-04T09:23:47.361Z,101296.11
2019-02-04T09:26:13.584Z,101296.73
2019-02-04T09:28:40.121Z,101299.03
2019-02-04T09:31:06.271Z,101293.09
2019-02-04T09:33:32.787Z,101287.51
2019-02-04T09:35:58.972Z,101290.45
2019-02-04T09:38:25.140Z,101288.23
2019-02-04T09:40:51.334Z,101291.22
2019-02-04T09:43:17.512Z,101292.02
2019-02-04T09:45:44.150Z,101287.69
2019-02-04T09:48:15.297Z,101285.58
2019-02-04T09:50:45.698Z,101289.52
2019-02-04T09:53:11.922Z,101287.33
2019-02-04T09:55:38.398Z,101299.42
2019-02-04T09:58:04.864Z,101291.28
2019-02-04T10:00:34.058Z,101288.00
2019-02-04T10:03:00.239Z,101284.36
2019-02-04T10:05:26.509Z,101294.47
2019-02-04T10:07:52.780Z,101290.11
2019-02-04T10:10:25.401Z,101294.23
2019-02-04T10:12:52.614Z,101292.38
2019-02-04T10:15:26.119Z,101301.48
2019-02-04T10:17:52.454Z,101297.87
2019-02-04T10:20:38.617Z,101303.61
2019-02-04T10:23:06.731Z,101298.64
2019-02-04T10:25:39.193Z,101299.83
2019-02-04T10:28:07.163Z,101297.21
2019-02-04T10:30:33.460Z,101300.90
2019-02-04T10:33:00.205Z,101292.48
2019-02-04T10:35:26.866Z,101289.20
2019-02-04T10:37:53.259Z,101286.73
2019-02-04T10:40:28.022Z,101280.85
2019-02-04T10:42:54.306Z,101283.34
2019-02-04T10:45:20.541Z,101289.59
2019-02-04T10:47:48.340Z,101282.36
2019-02-04T10:50:32.299Z,101280.22
2019-02-04T10:52:58.595Z,101283.11
2019-02-04T10:55:24.925Z,101286.03
2019-02-04T10:57:51.727Z,101277.37
2019-02-04T11:00:26.570Z,101283.11
2019-02-04T11:02:52.797Z,101278.53
2019-02-04T11:05:23.024Z,101279.33
2019-02-04T11:07:49.677Z,101280.03
2019-02-04T11:10:19.885Z,101279.50
2019-02-04T11:12:46.247Z,101281.49
2019-02-04T11:15:15.249Z,101280.25
2019-02-04T11:17:41.523Z,101283.70
2019-02-04T11:20:18.479Z,101285.41
2019-02-04T11:22:44.902Z,101285.44
2019-02-04T11:25:11.464Z,101289.15
2019-02-04T11:27:37.638Z,101292.20
2019-02-04T11:30:23.905Z,101286.42
2019-02-04T11:32:51.419Z,101288.06
2019-02-04T11:35:17.979Z,101286.14
2019-02-04T11:37:44.326Z,101282.21
2019-02-04T11:40:24.931Z,101280.36
2019-02-04T11:42:51.168Z,101276.77
2019-02-04T11:45:17.768Z,101287.81
2019-02-04T11:47:44.353Z,101293.76
2019-02-04T11:50:13.172Z,101291.72
2019-02-04T11:52:39.473Z,101296.88
2019-02-04T11:55:11.050Z,101296.89
2019-02-04T11:57:37.718Z,101298.42
2019-02-04T12:00:09.580Z,101304.69
2019-02-04T12:02:36.300Z,101298.70
2019-02-04T12:05:07.849Z,101300.43
2019-02-04T12:07:34.052Z,101298.65
2019-02-04T12:10:00.338Z,101294.75
2019-02-04T12:12:26.714Z,101291.36
2019-02-04T12:14:52.862Z,101291.75
2019-02-04T12:17:19.032Z,101286.62
2019-02-04T12:19:45.622Z,101293.12
2019-02-04T12:22:11.914Z,101285.58
2019-02-04T12:24:38.120Z,101283.75
2019-02-04T12:27:04.286Z,101289.61
2019-02-04T12:29:30.459Z,101283.56
2019-02-04T12:31:56.671Z,101287.20
2019-02-04T12:34:22.886Z,101294.23
2019-02-04T12:36:49.043Z,101294.49
2019-02-04T12:39:17.699Z,101291.58
2019-02-04T12:41:44.930Z,101292.42
2019-02-04T12:44:11.177Z,101292.58
2019-02-04T12:46:37.439Z,101298.23
2019-02-04T12:49:03.624Z,101288.75
2019-02-04T12:51:33.815Z,101282.38
2019-02-04T12:53:57.900Z,101281.14
2019-02-04T12:56:24.147Z,101278.56
2019-02-04T12:58:55.615Z,101273.86
2019-02-04T13:01:19.109Z,101267.17
2019-02-04T13:03:45.343Z,101267.14
2019-02-04T13:06:11.498Z,101276.86
2019-02-04T13:08:37.749Z,101273.86
2019-02-04T13:11:04.135Z,101273.90
2019-02-04T13:13:30.423Z,101265.22
2019-02-04T13:15:56.631Z,101267.97
2019-02-04T13:18:23.036Z,101267.58
2019-02-04T13:20:49.198Z,101265.86
2019-02-04T13:23:15.450Z,101258.02
2019-02-04T13:25:41.906Z,101260.82
2019-02-04T13:28:12.664Z,101257.34
2019-02-04T13:30:39.376Z,101260.54
2019-02-04T13:33:05.639Z,101250.74
2019-02-04T13:35:32.465Z,101254.75
2019-02-04T13:37:58.667Z,101252.28
2019-02-04T13:40:27.135Z,101258.11
2019-02-04T13:42:53.458Z,101248.47
2019-02-04T13:45:20.319Z,101247.19
2019-02-04T13:47:48.144Z,101250.56
2019-02-04T13:50:17.634Z,101257.83
2019-02-04T13:52:44.928Z,101258.72
2019-02-04T13:55:24.360Z,101257.11
2019-02-04T13:57:50.831Z,101253.35
2019-02-04T14:00:17.377Z,101254.23
2019-02-04T14:02:58.795Z,101243.36
2019-02-04T14:05:19.746Z,101249.80
2019-02-04T14:07:45.919Z,101250.39
2019-02-04T14:10:23.199Z,101248.45
2019-02-04T14:12:49.495Z,101241.84
2019-02-04T14:15:16.062Z,101241.69
2019-02-04T14:17:43.016Z,101247.69
2019-02-04T14:20:23.646Z,101246.85
2019-02-04T14:22:53.426Z,101240.17
2019-02-04T14:25:20.222Z,101238.70
2019-02-04T14:27:46.728Z,101236.08
2019-02-04T14:30:20.504Z,101233.55
2019-02-04T14:32:47.020Z,101229.39
2019-02-04T14:35:13.553Z,101230.72
2019-02-04T14:37:40.239Z,101224.61
2019-02-04T14:40:18.178Z,101222.98
2019-02-04T14:42:37.494Z,101220.48
2019-02-04T14:45:35.804Z,101224.73
2019-02-04T14:48:34.604Z,101219.64
2019-02-04T14:51:57.000Z,101214.91
2019-02-04T14:55:04.748Z,101210.39
2019-02-04T14:57:45.168Z,101205.70
2019-02-04T15:00:32.544Z,101206.37
2019-02-04T15:03:33.157Z,101203.43
2019-02-04T15:06:08.123Z,101210.27
2019-02-04T15:08:51.694Z,101210.48
2019-02-04T15:11:23.605Z,101203.37
2019-02-04T15:14:16.300Z,101204.02
2019-02-04T15:16:57.648Z,101207.57
2019-02-04T15:20:18.523Z,101208.39
2019-02-04T15:23:01.833Z,101209.83
2019-02-04T15:25:57.628Z,101211.13
2019-02-04T15:29:04.312Z,101210.61
2019-02-04T15:31:45.058Z,101214.38
2019-02-04T15:34:22.825Z,101213.88
2019-02-04T15:37:12.595Z,101209.06
2019-02-04T15:39:59.054Z,101206.74
2019-02-04T15:42:59.894Z,101211.89
2019-02-04T15:46:01.644Z,101210.66
2019-02-04T15:48:45.377Z,101216.28
2019-02-04T15:51:17.299Z,101213.48
2019-02-04T15:53:43.475Z,101220.07
2019-02-04T15:56:10.165Z,101223.03
2019-02-04T15:58:36.338Z,101223.52
2019-02-04T16:01:04.827Z,101223.31
2019-02-04T16:03:31.201Z,101225.80
2019-02-04T16:05:57.432Z,101223.25
2019-02-04T16:08:24.880Z,101224.09
2019-02-04T16:10:51.874Z,101222.69
2019-02-04T16:13:18.085Z,101220.78
2019-02-04T16:15:44.281Z,101221.83
2019-02-04T16:18:10.547Z,101230.43
2019-02-04T16:20:38.618Z,101228.14
2019-02-04T16:23:05.038Z,101221.66
2019-02-04T16:25:31.385Z,101220.73
2019-02-04T16:27:58.418Z,101227.28
2019-02-04T16:30:24.634Z,101226.40
2019-02-04T16:32:52.921Z,101235.14
2019-02-04T16:35:20.010Z,101240.86
2019-02-04T16:37:47.811Z,101235.56
2019-02-04T16:40:18.515Z,101235.83
2019-02-04T16:42:45.154Z,101231.72
2019-02-04T16:45:15.826Z,101231.66
2019-02-04T16:47:42.157Z,101232.25
2019-02-04T16:50:16.571Z,101231.50
2019-02-04T16:52:43.158Z,101229.63
2019-02-04T16:55:09.364Z,101236.91
2019-02-04T16:57:35.735Z,101237.16
2019-02-04T17:00:13.260Z,101241.30
2019-02-04T17:02:39.753Z,101241.91
2019-02-04T17:05:10.970Z,101234.84
2019-02-04T17:07:37.204Z,101234.15
2019-02-04T17:10:09.317Z,101233.35
2019-02-04T17:12:35.622Z,101239.38
2019-02-04T17:15:05.227Z,101242.09
2019-02-04T17:17:31.412Z,101245.22
2019-02-04T17:19:58.392Z,101245.39
2019-02-04T17:22:24.581Z,101249.05
2019-02-04T17:24:50.929Z,101246.88
2019-02-04T17:27:17.308Z,101249.38
2019-02-04T17:29:43.569Z,101247.86
2019-02-04T17:32:09.751Z,101244.71
2019-02-04T17:34:36.077Z,101245.59
2019-02-04T17:37:03.049Z,101238.23
2019-02-04T17:39:29.442Z,101237.43
2019-02-04T17:41:55.763Z,101233.64
2019-02-04T17:44:22.514Z,101238.78
2019-02-04T17:46:48.840Z,101235.31
2019-02-04T17:49:15.076Z,101238.23
2019-02-04T17:51:41.427Z,101233.05
2019-02-04T17:54:07.628Z,101231.19
2019-02-04T17:56:34.154Z,101226.87
2019-02-04T17:59:00.705Z,101223.64
2019-02-04T18:01:27.488Z,101222.09
2019-02-04T18:03:53.737Z,101221.41
2019-02-04T18:06:20.447Z,101226.77
2019-02-04T18:08:47.431Z,101223.48
2019-02-04T18:11:13.866Z,101223.15
2019-02-04T18:13:41.748Z,101229.70
2019-02-04T18:16:08.031Z,101228.42
2019-02-04T18:18:34.461Z,101230.27
2019-02-04T18:21:01.137Z,101225.91
2019-02-04T18:23:27.785Z,101233.89
2019-02-04T18:25:56.385Z,101228.30
2019-02-04T18:28:23.006Z,101225.31
2019-02-04T18:30:51.259Z,101227.27
2019-02-04T18:33:20.902Z,101224.61
2019-02-04T18:35:47.372Z,101222.98
2019-02-04T18:38:14.096Z,101222.66
2019-02-04T18:40:40.716Z,101227.86
2019-02-04T18:43:07.269Z,101220.30
2019-02-04T18:45:34.817Z,101234.09
2019-02-04T18:48:01.275Z,101231.95
2019-02-04T18:50:28.554Z,101237.68
2019-02-04T18:52:55.685Z,101235.24
2019-02-04T18:55:31.789Z,101239.41
2019-02-04T18:57:58.556Z,101240.83
2019-02-04T19:00:29.131Z,101241.16
2019-02-04T19:02:57.254Z,101237.13
2019-02-04T19:05:26.739Z,101237.08
2019-02-04T19:07:52.783Z,101231.95
2019-02-04T19:10:22.552Z,101224.66
2019-02-04T19:12:49.371Z,101226.83
2019-02-04T19:15:22.045Z,101223.52
2019-02-04T19:17:49.118Z,101223.77
2019-02-04T19:20:19.938Z,101224.64
2019-02-04T19:22:46.760Z,101224.06
2019-02-04T19:25:20.041Z,101222.19
2019-02-04T19:27:47.069Z,101225.31
2019-02-04T19:30:33.910Z,101233.46
2019-02-04T19:33:01.088Z,101233.62
2019-02-04T19:35:28.802Z,101230.58
2019-02-04T19:37:55.703Z,101232.83
2019-02-04T19:40:22.693Z,101233.05
2019-02-04T19:42:49.513Z,101234.31
2019-02-04T19:45:20.657Z,101231.19
2019-02-04T19:47:49.262Z,101235.93
2019-02-04T19:50:26.970Z,101233.91
2019-02-04T19:52:53.989Z,101234.66
2019-02-04T19:55:21.977Z,101237.97
2019-02-04T19:57:49.089Z,101233.95
2019-02-04T20:00:22.191Z,101237.23
2019-02-04T20:02:51.609Z,101233.67
2019-02-04T20:05:30.947Z,101232.25
2019-02-04T20:07:57.778Z,101233.73
2019-02-04T20:10:29.555Z,101233.18
2019-02-04T20:12:56.810Z,101226.69
2019-02-04T20:18:16.978Z,101217.66
2019-02-04T20:20:44.145Z,101219.23
2019-02-04T20:23:11.041Z,101213.73
2019-02-04T20:25:38.352Z,101210.95
2019-02-04T20:28:07.175Z,101206.69
2019-02-04T20:30:45.671Z,101210.57
2019-02-04T20:33:10.739Z,101210.61
2019-02-04T20:35:37.867Z,101208.08
2019-02-04T20:38:06.092Z,101204.89
2019-02-04T20:40:33.231Z,101214.39
2019-02-04T20:43:00.344Z,101208.21
2019-02-04T20:45:27.545Z,101211.53
2019-02-04T20:47:54.159Z,101208.67
2019-02-04T20:50:27.576Z,101208.31
2019-02-04T20:52:54.927Z,101204.67
2019-02-04T20:55:22.112Z,101216.12
2019-02-04T20:57:49.194Z,101208.91
2019-02-04T21:00:22.968Z,101213.39
2019-02-04T21:02:50.239Z,101221.69
2019-02-04T21:05:17.827Z,101218.02
2019-02-04T21:07:44.765Z,101221.27
2019-02-04T21:10:19.270Z,101223.34
2019-02-04T21:12:46.001Z,101229.45
2019-02-04T21:15:16.162Z,101228.34
2019-02-04T21:17:42.661Z,101227.92
2019-02-04T21:20:21.531Z,101226.69
2019-02-04T21:22:48.148Z,101227.02
2019-02-04T21:25:14.878Z,101222.76
2019-02-04T21:27:41.588Z,101225.12
2019-02-04T21:30:17.058Z,101224.22
2019-02-04T21:32:43.782Z,101226.66
2019-02-04T21:35:10.332Z,101220.88
2019-02-04T21:37:36.815Z,101224.28
2019-02-04T21:40:12.939Z,101216.55
2019-02-04T21:42:39.190Z,101210.12
2019-02-04T21:45:12.861Z,101210.96
2019-02-04T21:47:39.140Z,101202.31
2019-02-04T21:50:17.984Z,101199.52
2019-02-04T21:52:44.455Z,101202.02
2019-02-04T21:55:11.937Z,101203.06
2019-02-04T21:57:38.437Z,101198.97
2019-02-04T22:00:14.320Z,101190.69
2019-02-04T22:02:40.476Z,101191.14
2019-02-04T22:05:12.050Z,101190.68
2019-02-04T22:07:38.210Z,101188.14
2019-02-04T22:10:13.409Z,101194.73
2019-02-04T22:12:39.620Z,101195.06
2019-02-04T22:15:07.392Z,101191.06
2019-02-04T22:17:33.634Z,101197.66
2019-02-04T22:19:59.795Z,101195.30
2019-02-04T22:22:26.390Z,101192.70
2019-02-04T22:24:52.587Z,101188.31
2019-02-04T22:27:18.971Z,101179.48
2019-02-04T22:29:45.145Z,101181.91
2019-02-04T22:32:11.821Z,101180.94
2019-02-04T22:34:38.408Z,101180.94
2019-02-04T22:37:04.645Z,101181.27
2019-02-04T22:39:30.816Z,101180.71
2019-02-04T22:41:56.989Z,101184.52
2019-02-04T22:44:23.286Z,101183.70
2019-02-04T22:46:49.494Z,101184.52
2019-02-04T22:49:15.644Z,101178.50
2019-02-04T22:51:42.190Z,101182.27
2019-02-04T22:54:08.336Z,101180.28
2019-02-04T22:56:34.532Z,101179.90
2019-02-04T22:59:00.781Z,101183.28
2019-02-04T23:01:35.571Z,101182.76
2019-02-04T23:04:01.838Z,101186.69
2019-02-04T23:06:28.057Z,101182.14
2019-02-04T23:08:54.256Z,101181.66
2019-02-04T23:11:20.444Z,101182.47
2019-02-04T23:13:47.228Z,101175.52
2019-02-04T23:16:13.417Z,101176.36
2019-02-04T23:18:39.591Z,101172.95
2019-02-04T23:21:05.916Z,101172.50
2019-02-04T23:23:32.461Z,101172.33
2019-02-04T23:25:58.682Z,101167.85
2019-02-04T23:28:25.149Z,101157.75
2019-02-04T23:30:51.347Z,101160.28
2019-02-04T23:33:17.562Z,101154.05
2019-02-04T23:35:43.729Z,101147.72
2019-02-04T23:38:09.919Z,101148.10
2019-02-04T23:40:36.071Z,101137.91
2019-02-04T23:43:02.579Z,101151.64
2019-02-04T23:45:29.071Z,101146.97
2019-02-04T23:47:55.644Z,101137.05
2019-02-04T23:50:21.845Z,101135.66
2019-02-04T23:52:48.121Z,101130.52
2019-02-04T23:55:14.882Z,101132.20
2019-02-04T23:57:41.281Z,101135.48
